sensor_id;sensor_type;location;lat;lon;timestamp;pressure;altitude;pressure_sealevel;temperature
69597;BMP180;56802;51.184;-115.558;2022-12-07T00:01:51;85448.40;;;-16.30
69597;BMP180;56802;51.184;-115.558;2022-12-07T00:04:20;85445.60;;;-16.30
69597;BMP180;56802;51.184;-115.558;2022-12-07T00:06:53;85463.80;;;-16.30
69597;BMP180;56802;51.184;-115.558;2022-12-07T00:09:22;85456.80;;;-16.30
69597;BMP180;56802;51.184;-115.558;2022-12-07T00:11:52;85464.40;;;-16.30
69597;BMP180;56802;51.184;-115.558;2022-12-07T00:14:21;85464.20;;;-16.30
69597;BMP180;56802;51.184;-115.558;2022-12-07T00:16:52;85461.40;;;-16.32
69597;BMP180;56802;51.184;-115.558;2022-12-07T00:19:22;85464.60;;;-16.30
69597;BMP180;56802;51.184;-115.558;2022-12-07T00:21:51;85467.80;;;-16.30
69597;BMP180;56802;51.184;-115.558;2022-12-07T00:24:21;85455.40;;;-16.30
69597;BMP180;56802;51.184;-115.558;2022-12-07T00:26:50;85458.00;;;-16.30
69597;BMP180;56802;51.184;-115.558;2022-12-07T00:29:21;85457.20;;;-16.30
69597;BMP180;56802;51.184;-115.558;2022-12-07T00:31:52;85448.20;;;-16.30
69597;BMP180;56802;51.184;-115.558;2022-12-07T00:34:22;85465.40;;;-16.30
69597;BMP180;56802;51.184;-115.558;2022-12-07T00:36:51;85455.20;;;-16.40
69597;BMP180;56802;51.184;-115.558;2022-12-07T00:39:20;85464.40;;;-16.32
69597;BMP180;56802;51.184;-115.558;2022-12-07T00:41:49;85458.00;;;-16.30
69597;BMP180;56802;51.184;-115.558;2022-12-07T00:44:19;85458.20;;;-16.28
69597;BMP180;56802;51.184;-115.558;2022-12-07T00:46:48;85464.80;;;-16.20
69597;BMP180;56802;51.184;-115.558;2022-12-07T00:49:17;85459.20;;;-16.20
69597;BMP180;56802;51.184;-115.558;2022-12-07T00:51:49;85451.60;;;-16.14
69597;BMP180;56802;51.184;-115.558;2022-12-07T00:54:18;85467.40;;;-16.10
69597;BMP180;56802;51.184;-115.558;2022-12-07T00:56:47;85467.60;;;-16.00
69597;BMP180;56802;51.184;-115.558;2022-12-07T00:59:17;85472.20;;;-15.92
69597;BMP180;56802;51.184;-115.558;2022-12-07T01:01:46;85457.80;;;-15.90
69597;BMP180;56802;51.184;-115.558;2022-12-07T01:04:16;85463.60;;;-15.86
69597;BMP180;56802;51.184;-115.558;2022-12-07T01:06:45;85464.80;;;-15.80
69597;BMP180;56802;51.184;-115.558;2022-12-07T01:09:14;85467.40;;;-15.80
69597;BMP180;56802;51.184;-115.558;2022-12-07T01:11:43;85450.20;;;-15.80
69597;BMP180;56802;51.184;-115.558;2022-12-07T01:14:13;85453.00;;;-15.80
69597;BMP180;56802;51.184;-115.558;2022-12-07T01:16:42;85448.60;;;-15.80
69597;BMP180;56802;51.184;-115.558;2022-12-07T01:19:11;85453.80;;;-15.84
69597;BMP180;56802;51.184;-115.558;2022-12-07T01:21:41;85442.20;;;-15.82
69597;BMP180;56802;51.184;-115.558;2022-12-07T01:24:11;85442.40;;;-15.80
69597;BMP180;56802;51.184;-115.558;2022-12-07T01:26:41;85441.20;;;-15.80
69597;BMP180;56802;51.184;-115.558;2022-12-07T01:29:10;85446.40;;;-15.76
69597;BMP180;56802;51.184;-115.558;2022-12-07T01:31:39;85437.60;;;-15.70
69597;BMP180;56802;51.184;-115.558;2022-12-07T01:34:09;85435.80;;;-15.70
69597;BMP180;56802;51.184;-115.558;2022-12-07T01:36:38;85431.80;;;-15.70
69597;BMP180;56802;51.184;-115.558;2022-12-07T01:39:10;85437.60;;;-15.70
69597;BMP180;56802;51.184;-115.558;2022-12-07T01:41:41;85429.20;;;-15.70
69597;BMP180;56802;51.184;-115.558;2022-12-07T01:47:04;85425.80;;;-15.70
69597;BMP180;56802;51.184;-115.558;2022-12-07T01:49:48;85420.20;;;-15.70
69597;BMP180;56802;51.184;-115.558;2022-12-07T01:52:26;85430.80;;;-15.70
69597;BMP180;56802;51.184;-115.558;2022-12-07T01:55:03;85421.60;;;-15.70
69597;BMP180;56802;51.184;-115.558;2022-12-07T01:57:39;85425.80;;;-15.70
69597;BMP180;56802;51.184;-115.558;2022-12-07T02:00:11;85429.20;;;-15.72
69597;BMP180;56802;51.184;-115.558;2022-12-07T02:03:01;85420.40;;;-15.70
69597;BMP180;56802;51.184;-115.558;2022-12-07T02:05:35;85410.00;;;-15.70
69597;BMP180;56802;51.184;-115.558;2022-12-07T02:08:06;85414.00;;;-15.62
69597;BMP180;56802;51.184;-115.558;2022-12-07T02:10:36;85418.20;;;-15.60
69597;BMP180;56802;51.184;-115.558;2022-12-07T02:13:22;85410.60;;;-15.50
69597;BMP180;56802;51.184;-115.558;2022-12-07T02:16:35;85412.40;;;-15.44
69597;BMP180;56802;51.184;-115.558;2022-12-07T02:28:44;85413.80;;;-15.40
69597;BMP180;56802;51.184;-115.558;2022-12-07T02:31:19;85406.20;;;-15.42
69597;BMP180;56802;51.184;-115.558;2022-12-07T02:34:07;85411.20;;;-15.40
69597;BMP180;56802;51.184;-115.558;2022-12-07T02:36:54;85413.40;;;-15.40
69597;BMP180;56802;51.184;-115.558;2022-12-07T02:39:44;85404.60;;;-15.32
69597;BMP180;56802;51.184;-115.558;2022-12-07T02:42:25;85406.40;;;-15.30
69597;BMP180;56802;51.184;-115.558;2022-12-07T02:44:56;85405.80;;;-15.24
69597;BMP180;56802;51.184;-115.558;2022-12-07T02:47:27;85396.60;;;-15.20
69597;BMP180;56802;51.184;-115.558;2022-12-07T02:49:58;85396.40;;;-15.20
69597;BMP180;56802;51.184;-115.558;2022-12-07T02:52:27;85395.60;;;-15.20
69597;BMP180;56802;51.184;-115.558;2022-12-07T02:55:00;85391.40;;;-15.20
69597;BMP180;56802;51.184;-115.558;2022-12-07T02:58:18;85391.00;;;-15.10
69597;BMP180;56802;51.184;-115.558;2022-12-07T03:12:44;85392.00;;;-14.90
69597;BMP180;56802;51.184;-115.558;2022-12-07T03:15:41;85383.40;;;-14.90
69597;BMP180;56802;51.184;-115.558;2022-12-07T03:18:17;85390.20;;;-14.80
69597;BMP180;56802;51.184;-115.558;2022-12-07T03:20:50;85391.60;;;-14.78
69597;BMP180;56802;51.184;-115.558;2022-12-07T03:23:25;85373.80;;;-14.70
69597;BMP180;56802;51.184;-115.558;2022-12-07T03:26:00;85379.60;;;-14.70
69597;BMP180;56802;51.184;-115.558;2022-12-07T03:28:36;85391.40;;;-14.64
69597;BMP180;56802;51.184;-115.558;2022-12-07T03:39:45;85381.60;;;-14.46
69597;BMP180;56802;51.184;-115.558;2022-12-07T03:42:19;85380.00;;;-14.40
69597;BMP180;56802;51.184;-115.558;2022-12-07T03:44:48;85373.80;;;-14.40
69597;BMP180;56802;51.184;-115.558;2022-12-07T03:47:31;85368.00;;;-14.40
69597;BMP180;56802;51.184;-115.558;2022-12-07T03:50:29;85377.40;;;-14.38
69597;BMP180;56802;51.184;-115.558;2022-12-07T03:53:09;85378.60;;;-14.30
69597;BMP180;56802;51.184;-115.558;2022-12-07T03:55:44;85371.40;;;-14.30
69597;BMP180;56802;51.184;-115.558;2022-12-07T03:58:19;85369.40;;;-14.28
69597;BMP180;56802;51.184;-115.558;2022-12-07T04:00:50;85372.20;;;-14.20
69597;BMP180;56802;51.184;-115.558;2022-12-07T04:03:19;85379.00;;;-14.20
69597;BMP180;56802;51.184;-115.558;2022-12-07T04:05:49;85361.00;;;-14.14
69597;BMP180;56802;51.184;-115.558;2022-12-07T04:08:18;85369.20;;;-14.10
69597;BMP180;56802;51.184;-115.558;2022-12-07T04:10:48;85359.40;;;-14.10
69597;BMP180;56802;51.184;-115.558;2022-12-07T04:13:17;85371.80;;;-14.18
69597;BMP180;56802;51.184;-115.558;2022-12-07T04:15:47;85360.00;;;-14.12
69597;BMP180;56802;51.184;-115.558;2022-12-07T04:18:16;85356.40;;;-14.10
69597;BMP180;56802;51.184;-115.558;2022-12-07T04:20:46;85367.20;;;-14.10
69597;BMP180;56802;51.184;-115.558;2022-12-07T04:23:15;85360.20;;;-14.10
69597;BMP180;56802;51.184;-115.558;2022-12-07T04:25:47;85361.60;;;-14.10
69597;BMP180;56802;51.184;-115.558;2022-12-07T04:28:16;85362.60;;;-14.06
69597;BMP180;56802;51.184;-115.558;2022-12-07T04:30:46;85364.40;;;-14.00
69597;BMP180;56802;51.184;-115.558;2022-12-07T04:33:15;85369.60;;;-14.00
69597;BMP180;56802;51.184;-115.558;2022-12-07T04:35:44;85368.40;;;-14.00
69597;BMP180;56802;51.184;-115.558;2022-12-07T04:38:13;85375.80;;;-14.00
69597;BMP180;56802;51.184;-115.558;2022-12-07T04:40:42;85369.20;;;-13.90
69597;BMP180;56802;51.184;-115.558;2022-12-07T04:43:11;85372.80;;;-13.90
69597;BMP180;56802;51.184;-115.558;2022-12-07T04:45:46;85369.60;;;-13.90
69597;BMP180;56802;51.184;-115.558;2022-12-07T04:48:15;85368.00;;;-13.82
69597;BMP180;56802;51.184;-115.558;2022-12-07T04:50:47;85363.60;;;-13.80
69597;BMP180;56802;51.184;-115.558;2022-12-07T04:53:17;85360.20;;;-13.80
69597;BMP180;56802;51.184;-115.558;2022-12-07T04:55:46;85373.80;;;-13.70
69597;BMP180;56802;51.184;-115.558;2022-12-07T04:58:15;85369.80;;;-13.68
69597;BMP180;56802;51.184;-115.558;2022-12-07T05:00:44;85370.60;;;-13.60
69597;BMP180;56802;51.184;-115.558;2022-12-07T05:03:13;85376.00;;;-13.52
69597;BMP180;56802;51.184;-115.558;2022-12-07T05:05:42;85378.20;;;-13.50
69597;BMP180;56802;51.184;-115.558;2022-12-07T05:08:12;85380.60;;;-13.46
69597;BMP180;56802;51.184;-115.558;2022-12-07T05:10:41;85381.60;;;-13.40
69597;BMP180;56802;51.184;-115.558;2022-12-07T05:13:10;85371.40;;;-13.36
69597;BMP180;56802;51.184;-115.558;2022-12-07T05:15:39;85371.80;;;-13.30
69597;BMP180;56802;51.184;-115.558;2022-12-07T05:18:08;85378.40;;;-13.22
69597;BMP180;56802;51.184;-115.558;2022-12-07T05:20:37;85374.40;;;-13.20
69597;BMP180;56802;51.184;-115.558;2022-12-07T05:23:09;85381.20;;;-13.10
69597;BMP180;56802;51.184;-115.558;2022-12-07T05:25:39;85375.00;;;-13.06
69597;BMP180;56802;51.184;-115.558;2022-12-07T05:35:12;85373.60;;;-12.42
69597;BMP180;56802;51.184;-115.558;2022-12-07T05:37:41;85374.60;;;-12.40
69597;BMP180;56802;51.184;-115.558;2022-12-07T05:40:12;85378.00;;;-12.24
69597;BMP180;56802;51.184;-115.558;2022-12-07T05:42:42;85376.40;;;-12.04
69597;BMP180;56802;51.184;-115.558;2022-12-07T05:45:11;85375.40;;;-11.80
69597;BMP180;56802;51.184;-115.558;2022-12-07T05:47:40;85374.60;;;-11.60
69597;BMP180;56802;51.184;-115.558;2022-12-07T05:50:10;85374.00;;;-11.36
69597;BMP180;56802;51.184;-115.558;2022-12-07T05:52:39;85377.00;;;-11.10
69597;BMP180;56802;51.184;-115.558;2022-12-07T05:55:08;85383.40;;;-10.92
69597;BMP180;56802;51.184;-115.558;2022-12-07T05:57:37;85379.40;;;-10.80
69597;BMP180;56802;51.184;-115.558;2022-12-07T06:00:07;85389.80;;;-10.60
69597;BMP180;56802;51.184;-115.558;2022-12-07T06:02:36;85379.60;;;-10.46
69597;BMP180;56802;51.184;-115.558;2022-12-07T06:05:06;85382.80;;;-10.30
69597;BMP180;56802;51.184;-115.558;2022-12-07T06:07:35;85379.60;;;-10.16
69597;BMP180;56802;51.184;-115.558;2022-12-07T06:10:05;85384.40;;;-10.00
69597;BMP180;56802;51.184;-115.558;2022-12-07T06:12:35;85377.80;;;-9.80
69597;BMP180;56802;51.184;-115.558;2022-12-07T06:15:05;85383.60;;;-9.70
69597;BMP180;56802;51.184;-115.558;2022-12-07T06:17:34;85389.20;;;-9.58
69597;BMP180;56802;51.184;-115.558;2022-12-07T06:20:04;85389.80;;;-9.48
69597;BMP180;56802;51.184;-115.558;2022-12-07T06:22:33;85393.20;;;-9.40
69597;BMP180;56802;51.184;-115.558;2022-12-07T06:25:02;85396.80;;;-9.30
69597;BMP180;56802;51.184;-115.558;2022-12-07T06:27:35;85388.40;;;-9.20
69597;BMP180;56802;51.184;-115.558;2022-12-07T06:30:05;85394.80;;;-9.10
69597;BMP180;56802;51.184;-115.558;2022-12-07T06:32:36;85397.20;;;-9.00
69597;BMP180;56802;51.184;-115.558;2022-12-07T06:35:06;85395.80;;;-9.00
69597;BMP180;56802;51.184;-115.558;2022-12-07T06:37:35;85396.60;;;-8.90
69597;BMP180;56802;51.184;-115.558;2022-12-07T06:40:05;85399.60;;;-8.86
69597;BMP180;56802;51.184;-115.558;2022-12-07T06:42:34;85405.40;;;-8.80
69597;BMP180;56802;51.184;-115.558;2022-12-07T06:45:04;85409.80;;;-8.70
69597;BMP180;56802;51.184;-115.558;2022-12-07T06:47:33;85412.60;;;-8.62
69597;BMP180;56802;51.184;-115.558;2022-12-07T06:50:12;85412.40;;;-8.60
69597;BMP180;56802;51.184;-115.558;2022-12-07T06:52:42;85421.60;;;-8.50
69597;BMP180;56802;51.184;-115.558;2022-12-07T06:55:11;85422.60;;;-8.50
69597;BMP180;56802;51.184;-115.558;2022-12-07T06:57:40;85423.20;;;-8.40
69597;BMP180;56802;51.184;-115.558;2022-12-07T07:00:14;85420.60;;;-8.30
69597;BMP180;56802;51.184;-115.558;2022-12-07T07:02:48;85431.00;;;-8.20
69597;BMP180;56802;51.184;-115.558;2022-12-07T07:05:17;85436.00;;;-8.20
69597;BMP180;56802;51.184;-115.558;2022-12-07T07:07:47;85439.80;;;-8.10
69597;BMP180;56802;51.184;-115.558;2022-12-07T07:10:36;85434.60;;;-8.08
69597;BMP180;56802;51.184;-115.558;2022-12-07T07:13:06;85413.00;;;-8.00
69597;BMP180;56802;51.184;-115.558;2022-12-07T07:15:38;85409.80;;;-7.92
69597;BMP180;56802;51.184;-115.558;2022-12-07T07:18:09;85408.80;;;-7.90
69597;BMP180;56802;51.184;-115.558;2022-12-07T07:20:38;85413.40;;;-7.80
69597;BMP180;56802;51.184;-115.558;2022-12-07T07:23:07;85422.60;;;-7.70
69597;BMP180;56802;51.184;-115.558;2022-12-07T07:25:36;85444.00;;;-7.64
69597;BMP180;56802;51.184;-115.558;2022-12-07T07:28:05;85442.00;;;-7.60
69597;BMP180;56802;51.184;-115.558;2022-12-07T07:30:34;85438.20;;;-7.50
69597;BMP180;56802;51.184;-115.558;2022-12-07T07:33:05;85438.20;;;-7.50
69597;BMP180;56802;51.184;-115.558;2022-12-07T07:35:35;85443.00;;;-7.50
69597;BMP180;56802;51.184;-115.558;2022-12-07T07:38:04;85436.60;;;-7.46
69597;BMP180;56802;51.184;-115.558;2022-12-07T07:40:33;85444.80;;;-7.40
69597;BMP180;56802;51.184;-115.558;2022-12-07T07:43:03;85454.00;;;-7.40
69597;BMP180;56802;51.184;-115.558;2022-12-07T07:45:32;85457.00;;;-7.32
69597;BMP180;56802;51.184;-115.558;2022-12-07T07:48:01;85453.40;;;-7.30
69597;BMP180;56802;51.184;-115.558;2022-12-07T07:50:31;85455.20;;;-7.22
69597;BMP180;56802;51.184;-115.558;2022-12-07T07:53:00;85460.80;;;-7.20
69597;BMP180;56802;51.184;-115.558;2022-12-07T07:55:29;85464.80;;;-7.18
69597;BMP180;56802;51.184;-115.558;2022-12-07T07:57:59;85463.00;;;-7.10
69597;BMP180;56802;51.184;-115.558;2022-12-07T08:00:28;85463.20;;;-7.10
69597;BMP180;56802;51.184;-115.558;2022-12-07T08:02:57;85464.00;;;-7.10
69597;BMP180;56802;51.184;-115.558;2022-12-07T08:05:26;85467.20;;;-7.08
69597;BMP180;56802;51.184;-115.558;2022-12-07T08:07:55;85459.80;;;-7.00
69597;BMP180;56802;51.184;-115.558;2022-12-07T08:10:24;85464.80;;;-7.00
69597;BMP180;56802;51.184;-115.558;2022-12-07T08:12:56;85456.40;;;-7.00
69597;BMP180;56802;51.184;-115.558;2022-12-07T08:15:46;85459.00;;;-7.00
69597;BMP180;56802;51.184;-115.558;2022-12-07T08:18:16;85458.60;;;-7.00
69597;BMP180;56802;51.184;-115.558;2022-12-07T08:20:45;85455.40;;;-6.90
69597;BMP180;56802;51.184;-115.558;2022-12-07T08:23:17;85462.00;;;-6.90
69597;BMP180;56802;51.184;-115.558;2022-12-07T08:25:46;85462.20;;;-6.82
69597;BMP180;56802;51.184;-115.558;2022-12-07T08:28:15;85455.20;;;-6.80
69597;BMP180;56802;51.184;-115.558;2022-12-07T08:30:44;85460.40;;;-6.80
69597;BMP180;56802;51.184;-115.558;2022-12-07T08:33:14;85458.60;;;-6.78
69597;BMP180;56802;51.184;-115.558;2022-12-07T08:35:43;85459.80;;;-6.70
69597;BMP180;56802;51.184;-115.558;2022-12-07T08:38:12;85452.80;;;-6.70
69597;BMP180;56802;51.184;-115.558;2022-12-07T08:40:42;85446.20;;;-6.70
69597;BMP180;56802;51.184;-115.558;2022-12-07T08:43:11;85445.00;;;-6.66
69597;BMP180;56802;51.184;-115.558;2022-12-07T08:45:41;85445.40;;;-6.60
69597;BMP180;56802;51.184;-115.558;2022-12-07T08:48:13;85461.00;;;-6.58
69597;BMP180;56802;51.184;-115.558;2022-12-07T08:50:45;85470.00;;;-6.52
69597;BMP180;56802;51.184;-115.558;2022-12-07T08:53:17;85469.20;;;-6.50
69597;BMP180;56802;51.184;-115.558;2022-12-07T08:55:47;85472.20;;;-6.48
69597;BMP180;56802;51.184;-115.558;2022-12-07T08:58:16;85473.00;;;-6.40
69597;BMP180;56802;51.184;-115.558;2022-12-07T09:00:46;85469.80;;;-6.40
69597;BMP180;56802;51.184;-115.558;2022-12-07T09:03:16;85475.80;;;-6.36
69597;BMP180;56802;51.184;-115.558;2022-12-07T09:05:45;85473.20;;;-6.30
69597;BMP180;56802;51.184;-115.558;2022-12-07T09:08:15;85478.40;;;-6.30
69597;BMP180;56802;51.184;-115.558;2022-12-07T09:10:44;85482.00;;;-6.24
69597;BMP180;56802;51.184;-115.558;2022-12-07T09:13:14;85479.60;;;-6.20
69597;BMP180;56802;51.184;-115.558;2022-12-07T09:15:43;85473.40;;;-6.20
69597;BMP180;56802;51.184;-115.558;2022-12-07T09:18:12;85481.40;;;-6.20
69597;BMP180;56802;51.184;-115.558;2022-12-07T09:20:44;85483.20;;;-6.20
69597;BMP180;56802;51.184;-115.558;2022-12-07T09:23:13;85489.60;;;-6.20
69597;BMP180;56802;51.184;-115.558;2022-12-07T09:25:42;85485.80;;;-6.20
69597;BMP180;56802;51.184;-115.558;2022-12-07T09:28:11;85491.80;;;-6.16
69597;BMP180;56802;51.184;-115.558;2022-12-07T09:30:49;85495.80;;;-6.10
69597;BMP180;56802;51.184;-115.558;2022-12-07T09:33:38;85495.60;;;-6.10
69597;BMP180;56802;51.184;-115.558;2022-12-07T09:36:08;85495.00;;;-6.06
69597;BMP180;56802;51.184;-115.558;2022-12-07T09:38:38;85510.20;;;-6.00
69597;BMP180;56802;51.184;-115.558;2022-12-07T09:41:07;85513.40;;;-6.00
69597;BMP180;56802;51.184;-115.558;2022-12-07T09:43:39;85514.40;;;-6.00
69597;BMP180;56802;51.184;-115.558;2022-12-07T09:46:15;85511.00;;;-5.92
69597;BMP180;56802;51.184;-115.558;2022-12-07T09:48:49;85511.20;;;-5.90
69597;BMP180;56802;51.184;-115.558;2022-12-07T09:51:24;85513.40;;;-5.90
69597;BMP180;56802;51.184;-115.558;2022-12-07T09:53:56;85519.20;;;-5.80
69597;BMP180;56802;51.184;-115.558;2022-12-07T09:56:28;85519.60;;;-5.80
69597;BMP180;56802;51.184;-115.558;2022-12-07T09:59:02;85525.00;;;-5.80
69597;BMP180;56802;51.184;-115.558;2022-12-07T10:01:34;85528.80;;;-5.80
69597;BMP180;56802;51.184;-115.558;2022-12-07T10:04:24;85533.60;;;-5.80
69597;BMP180;56802;51.184;-115.558;2022-12-07T10:06:53;85536.00;;;-5.80
69597;BMP180;56802;51.184;-115.558;2022-12-07T10:09:23;85540.00;;;-5.80
69597;BMP180;56802;51.184;-115.558;2022-12-07T10:12:10;85535.40;;;-5.80
69597;BMP180;56802;51.184;-115.558;2022-12-07T10:15:02;85535.80;;;-5.78
69597;BMP180;56802;51.184;-115.558;2022-12-07T10:17:40;85538.80;;;-5.70
69597;BMP180;56802;51.184;-115.558;2022-12-07T10:20:21;85549.80;;;-5.70
69597;BMP180;56802;51.184;-115.558;2022-12-07T10:23:01;85552.00;;;-5.66
69597;BMP180;56802;51.184;-115.558;2022-12-07T10:25:35;85564.40;;;-5.60
69597;BMP180;56802;51.184;-115.558;2022-12-07T10:31:03;85565.20;;;-5.60
69597;BMP180;56802;51.184;-115.558;2022-12-07T10:33:56;85580.40;;;-5.50
69597;BMP180;56802;51.184;-115.558;2022-12-07T10:36:35;85578.00;;;-5.48
69597;BMP180;56802;51.184;-115.558;2022-12-07T10:39:16;85573.60;;;-5.40
69597;BMP180;56802;51.184;-115.558;2022-12-07T10:41:57;85585.40;;;-5.38
69597;BMP180;56802;51.184;-115.558;2022-12-07T10:44:32;85594.00;;;-5.30
69597;BMP180;56802;51.184;-115.558;2022-12-07T10:53:31;85586.80;;;-5.20
69597;BMP180;56802;51.184;-115.558;2022-12-07T11:02:59;85590.20;;;-5.10
69597;BMP180;56802;51.184;-115.558;2022-12-07T11:05:50;85594.40;;;-5.10
69597;BMP180;56802;51.184;-115.558;2022-12-07T11:14:10;85598.20;;;-5.00
69597;BMP180;56802;51.184;-115.558;2022-12-07T11:23:34;85608.60;;;-4.90
69597;BMP180;56802;51.184;-115.558;2022-12-07T11:26:22;85614.80;;;-4.88
69597;BMP180;56802;51.184;-115.558;2022-12-07T11:29:22;85614.60;;;-4.80
69597;BMP180;56802;51.184;-115.558;2022-12-07T11:37:46;85626.00;;;-4.70
69597;BMP180;56802;51.184;-115.558;2022-12-07T11:40:28;85631.60;;;-4.60
69597;BMP180;56802;51.184;-115.558;2022-12-07T11:46:12;85639.60;;;-4.60
69597;BMP180;56802;51.184;-115.558;2022-12-07T11:48:57;85636.80;;;-4.56
69597;BMP180;56802;51.184;-115.558;2022-12-07T11:51:30;85631.60;;;-4.52
69597;BMP180;56802;51.184;-115.558;2022-12-07T11:54:16;85631.20;;;-4.50
69597;BMP180;56802;51.184;-115.558;2022-12-07T11:56:50;85638.00;;;-4.50
69597;BMP180;56802;51.184;-115.558;2022-12-07T11:59:33;85638.60;;;-4.50
69597;BMP180;56802;51.184;-115.558;2022-12-07T12:02:33;85643.80;;;-4.50
69597;BMP180;56802;51.184;-115.558;2022-12-07T12:05:22;85651.00;;;-4.46
69597;BMP180;56802;51.184;-115.558;2022-12-07T12:18:07;85662.80;;;-4.50
69597;BMP180;56802;51.184;-115.558;2022-12-07T12:20:49;85668.00;;;-4.44
69597;BMP180;56802;51.184;-115.558;2022-12-07T12:24:21;85664.60;;;-4.40
69597;BMP180;56802;51.184;-115.558;2022-12-07T12:26:27;85671.60;;;-4.40
69597;BMP180;56802;51.184;-115.558;2022-12-07T12:29:15;85666.40;;;-4.40
69597;BMP180;56802;51.184;-115.558;2022-12-07T12:32:17;85681.00;;;-4.36
69597;BMP180;56802;51.184;-115.558;2022-12-07T12:37:40;85674.80;;;-4.34
69597;BMP180;56802;51.184;-115.558;2022-12-07T12:40:39;85687.00;;;-4.40
69597;BMP180;56802;51.184;-115.558;2022-12-07T12:43:47;85690.80;;;-4.40
69597;BMP180;56802;51.184;-115.558;2022-12-07T12:51:55;85692.00;;;-4.40
69597;BMP180;56802;51.184;-115.558;2022-12-07T12:54:34;85690.60;;;-4.40
69597;BMP180;56802;51.184;-115.558;2022-12-07T12:57:13;85702.60;;;-4.40
69597;BMP180;56802;51.184;-115.558;2022-12-07T13:02:35;85707.00;;;-4.40
69597;BMP180;56802;51.184;-115.558;2022-12-07T13:15:46;85698.80;;;-4.50
69597;BMP180;56802;51.184;-115.558;2022-12-07T13:24:06;85703.00;;;-4.60
69597;BMP180;56802;51.184;-115.558;2022-12-07T13:26:41;85705.60;;;-4.60
69597;BMP180;56802;51.184;-115.558;2022-12-07T13:29:16;85708.60;;;-4.60
69597;BMP180;56802;51.184;-115.558;2022-12-07T13:31:50;85705.00;;;-4.60
69597;BMP180;56802;51.184;-115.558;2022-12-07T13:34:39;85707.40;;;-4.56
69597;BMP180;56802;51.184;-115.558;2022-12-07T13:40:20;85721.40;;;-4.50
69597;BMP180;56802;51.184;-115.558;2022-12-07T13:42:59;85723.80;;;-4.50
69597;BMP180;56802;51.184;-115.558;2022-12-07T13:45:32;85730.60;;;-4.54
69597;BMP180;56802;51.184;-115.558;2022-12-07T13:48:32;85721.20;;;-4.56
69597;BMP180;56802;51.184;-115.558;2022-12-07T13:51:04;85717.60;;;-4.50
69597;BMP180;56802;51.184;-115.558;2022-12-07T13:53:32;85723.80;;;-4.50
69597;BMP180;56802;51.184;-115.558;2022-12-07T13:56:02;85735.40;;;-4.50
69597;BMP180;56802;51.184;-115.558;2022-12-07T13:58:32;85732.00;;;-4.50
69597;BMP180;56802;51.184;-115.558;2022-12-07T14:01:05;85743.20;;;-4.50
69597;BMP180;56802;51.184;-115.558;2022-12-07T14:03:35;85740.00;;;-4.50
69597;BMP180;56802;51.184;-115.558;2022-12-07T14:06:36;85739.80;;;-4.48
69597;BMP180;56802;51.184;-115.558;2022-12-07T14:09:22;85744.20;;;-4.40
69597;BMP180;56802;51.184;-115.558;2022-12-07T14:11:54;85759.00;;;-4.38
69597;BMP180;56802;51.184;-115.558;2022-12-07T14:14:29;85770.00;;;-4.34
69597;BMP180;56802;51.184;-115.558;2022-12-07T14:17:21;85753.80;;;-4.30
69597;BMP180;56802;51.184;-115.558;2022-12-07T14:19:58;85754.80;;;-4.30
69597;BMP180;56802;51.184;-115.558;2022-12-07T14:22:38;85758.20;;;-4.30
69597;BMP180;56802;51.184;-115.558;2022-12-07T14:25:24;85759.40;;;-4.30
69597;BMP180;56802;51.184;-115.558;2022-12-07T14:28:01;85764.00;;;-4.30
69597;BMP180;56802;51.184;-115.558;2022-12-07T14:30:34;85760.00;;;-4.30
69597;BMP180;56802;51.184;-115.558;2022-12-07T14:33:05;85766.00;;;-4.30
69597;BMP180;56802;51.184;-115.558;2022-12-07T14:35:33;85770.20;;;-4.30
69597;BMP180;56802;51.184;-115.558;2022-12-07T14:38:03;85771.00;;;-4.26
69597;BMP180;56802;51.184;-115.558;2022-12-07T14:40:32;85774.60;;;-4.20
69597;BMP180;56802;51.184;-115.558;2022-12-07T14:43:06;85785.00;;;-4.10
69597;BMP180;56802;51.184;-115.558;2022-12-07T14:45:37;85779.40;;;-4.10
69597;BMP180;56802;51.184;-115.558;2022-12-07T14:48:12;85786.40;;;-4.10
69597;BMP180;56802;51.184;-115.558;2022-12-07T14:51:02;85790.20;;;-4.10
69597;BMP180;56802;51.184;-115.558;2022-12-07T14:53:52;85804.00;;;-4.10
69597;BMP180;56802;51.184;-115.558;2022-12-07T14:56:24;85806.40;;;-4.10
69597;BMP180;56802;51.184;-115.558;2022-12-07T14:58:53;85815.60;;;-4.10
69597;BMP180;56802;51.184;-115.558;2022-12-07T15:01:22;85811.20;;;-4.10
69597;BMP180;56802;51.184;-115.558;2022-12-07T15:03:51;85812.40;;;-4.10
69597;BMP180;56802;51.184;-115.558;2022-12-07T15:06:20;85817.60;;;-4.10
69597;BMP180;56802;51.184;-115.558;2022-12-07T15:08:49;85812.40;;;-4.10
69597;BMP180;56802;51.184;-115.558;2022-12-07T15:11:19;85815.80;;;-4.12
69597;BMP180;56802;51.184;-115.558;2022-12-07T15:13:47;85808.80;;;-4.20
69597;BMP180;56802;51.184;-115.558;2022-12-07T15:16:39;85808.00;;;-4.20
69597;BMP180;56802;51.184;-115.558;2022-12-07T15:19:31;85807.00;;;-4.30
69597;BMP180;56802;51.184;-115.558;2022-12-07T15:22:00;85803.00;;;-4.30
69597;BMP180;56802;51.184;-115.558;2022-12-07T15:24:29;85803.00;;;-4.40
69597;BMP180;56802;51.184;-115.558;2022-12-07T15:26:57;85799.40;;;-4.40
69597;BMP180;56802;51.184;-115.558;2022-12-07T15:29:26;85811.80;;;-4.50
69597;BMP180;56802;51.184;-115.558;2022-12-07T15:31:56;85812.00;;;-4.60
69597;BMP180;56802;51.184;-115.558;2022-12-07T15:34:28;85821.60;;;-4.60
69597;BMP180;56802;51.184;-115.558;2022-12-07T15:37:08;85828.80;;;-4.70
69597;BMP180;56802;51.184;-115.558;2022-12-07T15:39:37;85836.20;;;-4.70
69597;BMP180;56802;51.184;-115.558;2022-12-07T15:42:06;85839.60;;;-4.70
69597;BMP180;56802;51.184;-115.558;2022-12-07T15:44:35;85844.60;;;-4.70
69597;BMP180;56802;51.184;-115.558;2022-12-07T15:47:22;85854.60;;;-4.70
69597;BMP180;56802;51.184;-115.558;2022-12-07T15:49:51;85848.20;;;-4.60
69597;BMP180;56802;51.184;-115.558;2022-12-07T15:52:25;85857.20;;;-4.60
69597;BMP180;56802;51.184;-115.558;2022-12-07T15:54:54;85854.40;;;-4.50
69597;BMP180;56802;51.184;-115.558;2022-12-07T15:57:24;85853.60;;;-4.50
69597;BMP180;56802;51.184;-115.558;2022-12-07T15:59:53;85850.60;;;-4.44
69597;BMP180;56802;51.184;-115.558;2022-12-07T16:02:23;85853.80;;;-4.40
69597;BMP180;56802;51.184;-115.558;2022-12-07T16:04:52;85845.00;;;-4.40